Time;durP1;ratioP1;P1;durP2;ratioP2;P2;SDS_P1;SDS_P2;PMS_P1;PMS_P2;Temp;Humidity;BMP_temperature;BMP_pressure;BME280_temperature;BME280_humidity;BME280_pressure;Samples;Min_cycle;Max_cycle;Signal;HPM_P1;HPM_P2
2023/06/10 00:01:59;;;;;;;15.32;5.60;;;17.10;97.80;;;;;;4980941;28;20050;-73
2023/06/10 00:04:27;;;;;;;11.88;5.20;;;17.10;97.90;;;;;;4959024;28;206598;-73
2023/06/10 00:06:53;;;;;;;16.50;5.00;;;17.00;97.90;;;;;;4986719;28;20042;-73
2023/06/10 00:09:21;;;;;;;12.30;5.05;;;17.00;98.00;;;;;;4957684;28;215727;-73
2023/06/10 00:11:47;;;;;;;12.18;5.20;;;17.00;98.10;;;;;;4989074;28;20535;-75
2023/06/10 00:14:13;;;;;;;14.07;5.35;;;16.90;98.00;;;;;;4940570;28;208669;-74
2023/06/10 00:16:40;;;;;;;11.95;5.10;;;16.90;98.10;;;;;;5002282;28;20060;-73
2023/06/10 00:19:07;;;;;;;13.32;5.13;;;16.90;98.10;;;;;;4957552;28;212382;-71
2023/06/10 00:21:37;;;;;;;12.82;5.35;;;16.90;98.30;;;;;;5015637;28;20062;-74
2023/06/10 00:24:05;;;;;;;14.18;5.50;;;16.80;98.30;;;;;;4956637;28;212309;-74
2023/06/10 00:26:32;;;;;;;13.43;4.68;;;16.80;98.20;;;;;;5006884;28;20076;-74
2023/06/10 00:28:58;;;;;;;13.82;5.47;;;16.80;98.20;;;;;;4962573;28;206962;-73
2023/06/10 00:31:26;;;;;;;14.88;5.03;;;16.70;98.30;;;;;;5022423;28;20060;-74
2023/06/10 00:33:52;;;;;;;12.82;5.32;;;16.70;98.40;;;;;;4935301;28;206738;-74
2023/06/10 00:36:19;;;;;;;13.68;5.28;;;16.60;98.50;;;;;;4993646;28;20054;-73
2023/06/10 00:38:45;;;;;;;13.73;5.18;;;16.70;98.60;;;;;;4961687;28;206679;-73
2023/06/10 00:41:11;;;;;;;12.77;5.15;;;16.60;98.60;;;;;;4999346;28;20071;-73
2023/06/10 00:43:38;;;;;;;11.80;4.82;;;16.60;98.70;;;;;;4957121;28;208127;-74
2023/06/10 00:46:05;;;;;;;12.52;4.90;;;16.50;98.80;;;;;;4978856;28;20054;-73
2023/06/10 00:48:31;;;;;;;14.43;5.35;;;16.50;98.90;;;;;;4939820;28;212338;-72
2023/06/10 00:50:58;;;;;;;12.13;5.70;;;16.50;98.90;;;;;;5011941;28;20095;-74
2023/06/10 00:53:25;;;;;;;12.35;4.95;;;16.40;98.80;;;;;;4921583;28;211790;-73
2023/06/10 00:55:51;;;;;;;12.98;5.28;;;16.40;98.90;;;;;;4999782;28;20545;-73
2023/06/10 00:58:18;;;;;;;10.87;5.00;;;16.40;98.90;;;;;;4955042;28;208215;-73
2023/06/10 01:00:45;;;;;;;13.10;5.18;;;16.30;98.90;;;;;;4979108;28;20062;-74
2023/06/10 01:03:11;;;;;;;11.30;4.80;;;16.30;98.90;;;;;;4942939;28;211613;-74
2023/06/10 01:05:38;;;;;;;11.88;5.15;;;16.30;99.00;;;;;;5002733;28;20062;-73
2023/06/10 01:08:23;;;;;;;15.02;5.03;;;16.20;99.00;;;;;;5009627;28;209040;-76
2023/06/10 01:10:58;;;;;;;13.07;5.47;;;16.20;99.10;;;;;;4963451;28;94294;-73
2023/06/10 01:13:28;;;;;;;17.43;5.43;;;16.20;99.10;;;;;;4967134;28;211000;-75
2023/06/10 01:15:55;;;;;;;12.00;4.97;;;16.20;99.10;;;;;;5001480;28;20056;-73
2023/06/10 01:18:22;;;;;;;13.93;5.20;;;16.10;99.00;;;;;;4979698;28;207983;-74
2023/06/10 01:20:48;;;;;;;11.20;4.95;;;16.10;99.10;;;;;;4997682;28;20050;-73
2023/06/10 01:23:15;;;;;;;11.95;5.03;;;16.10;99.20;;;;;;4925576;28;209123;-73
2023/06/10 01:26:04;;;;;;;15.85;5.10;;;16.00;99.20;;;;;;4968009;28;20046;-72
2023/06/10 01:28:30;;;;;;;12.73;5.18;;;16.00;99.20;;;;;;4930297;28;209842;-73
2023/06/10 01:31:13;;;;;;;14.65;5.40;;;15.90;99.20;;;;;;4985210;28;20080;-73
2023/06/10 01:33:43;;;;;;;14.10;5.10;;;15.90;99.30;;;;;;4935773;28;214853;-74
2023/06/10 01:36:13;;;;;;;14.97;5.07;;;15.80;99.30;;;;;;4986307;28;20400;-75
2023/06/10 01:38:45;;;;;;;14.05;5.00;;;15.80;99.40;;;;;;4964873;28;209426;-77
2023/06/10 01:41:14;;;;;;;15.15;5.28;;;15.80;99.40;;;;;;4991775;28;20081;-77
2023/06/10 01:43:42;;;;;;;12.57;4.90;;;15.70;99.40;;;;;;4935410;28;208681;-74
2023/06/10 01:46:08;;;;;;;11.65;5.13;;;15.70;99.50;;;;;;4986466;28;20057;-74
2023/06/10 01:48:34;;;;;;;12.88;5.68;;;15.60;99.50;;;;;;4956850;28;208795;-73
2023/06/10 01:51:00;;;;;;;11.85;5.03;;;15.60;99.40;;;;;;4998735;28;20097;-73
2023/06/10 01:53:27;;;;;;;11.70;5.05;;;15.60;99.50;;;;;;4928696;28;212899;-74
2023/06/10 01:55:53;;;;;;;13.07;5.45;;;15.60;99.50;;;;;;5010843;28;20061;-73
2023/06/10 01:58:19;;;;;;;13.50;5.43;;;15.50;99.60;;;;;;4915118;28;208847;-74
2023/06/10 02:00:45;;;;;;;14.30;4.97;;;15.40;99.60;;;;;;5008650;28;20058;-73
2023/06/10 02:03:12;;;;;;;12.77;5.25;;;15.40;99.70;;;;;;4942945;28;209702;-75
2023/06/10 02:05:38;;;;;;;12.93;5.10;;;15.40;99.80;;;;;;4963082;28;20500;-73
2023/06/10 02:08:05;;;;;;;14.85;5.22;;;15.40;99.90;;;;;;4983638;28;209270;-75
2023/06/10 02:10:31;;;;;;;15.20;5.18;;;15.30;99.90;;;;;;4992035;28;206886;-72
2023/06/10 02:12:57;;;;;;;13.18;5.20;;;15.30;99.90;;;;;;5003460;28;20050;-73
2023/06/10 02:15:24;;;;;;;13.63;5.00;;;15.30;99.90;;;;;;4944539;28;150081;-74
2023/06/10 02:17:51;;;;;;;13.25;5.25;;;15.20;99.90;;;;;;5006833;28;20053;-74
2023/06/10 02:20:18;;;;;;;12.52;4.93;;;15.20;99.90;;;;;;4962129;28;205785;-73
2023/06/10 02:22:44;;;;;;;12.13;5.03;;;15.20;99.90;;;;;;5019641;28;20066;-74
2023/06/10 02:25:10;;;;;;;13.38;5.25;;;15.20;99.90;;;;;;4964775;28;208234;-73
2023/06/10 02:27:36;;;;;;;14.38;5.20;;;15.10;99.90;;;;;;5006550;28;20054;-73
2023/06/10 02:30:02;;;;;;;12.43;5.38;;;15.10;99.90;;;;;;4964503;28;214708;-73
2023/06/10 02:32:29;;;;;;;11.95;5.35;;;15.10;99.90;;;;;;4984571;28;20051;-73
2023/06/10 02:34:55;;;;;;;10.70;5.07;;;15.00;99.90;;;;;;4942181;28;208798;-73
2023/06/10 02:37:21;;;;;;;12.50;4.85;;;15.00;99.90;;;;;;4993131;28;20058;-72
2023/06/10 02:39:47;;;;;;;11.98;5.38;;;14.90;99.90;;;;;;4958511;28;207177;-72
2023/06/10 02:42:13;;;;;;;12.00;5.07;;;14.90;99.90;;;;;;5013108;28;20155;-72
2023/06/10 02:44:39;;;;;;;14.20;5.15;;;14.90;99.90;;;;;;4968479;28;210046;-73
2023/06/10 02:47:06;;;;;;;13.98;5.07;;;14.80;99.90;;;;;;5006266;28;20065;-73
2023/06/10 02:49:32;;;;;;;13.25;5.22;;;14.80;99.90;;;;;;4966675;28;207783;-75
2023/06/10 02:51:58;;;;;;;12.32;4.95;;;14.80;99.90;;;;;;5010331;28;20065;-75
2023/06/10 02:54:24;;;;;;;12.85;5.57;;;14.70;99.90;;;;;;4938040;28;182926;-74
2023/06/10 02:56:52;;;;;;;12.20;5.10;;;14.70;99.90;;;;;;4988210;28;20050;-73
2023/06/10 02:59:18;;;;;;;12.98;5.28;;;14.70;99.90;;;;;;4963575;28;217419;-75
2023/06/10 03:01:45;;;;;;;15.90;5.18;;;14.70;99.90;;;;;;5004056;28;20061;-74
2023/06/10 03:04:13;;;;;;;13.43;5.35;;;14.60;99.90;;;;;;4952015;28;210162;-72
2023/06/10 03:06:40;;;;;;;11.45;4.75;;;14.60;99.90;;;;;;5019824;28;20053;-73
2023/06/10 03:09:09;;;;;;;11.05;5.43;;;14.60;99.90;;;;;;4943246;28;211310;-75
2023/06/10 03:11:36;;;;;;;14.90;5.60;;;14.50;99.90;;;;;;4995397;28;20054;-75
2023/06/10 03:14:02;;;;;;;11.57;4.90;;;14.50;99.90;;;;;;4957420;28;206366;-74
2023/06/10 03:16:30;;;;;;;14.00;5.28;;;14.50;99.90;;;;;;5001673;28;20065;-73
2023/06/10 03:18:56;;;;;;;13.68;4.80;;;14.50;99.90;;;;;;4961776;28;205683;-73
2023/06/10 03:21:22;;;;;;;17.58;5.53;;;14.40;99.90;;;;;;4995307;28;20057;-72
2023/06/10 03:23:48;;;;;;;16.75;5.45;;;14.40;99.90;;;;;;4951246;28;211962;-75
2023/06/10 03:26:15;;;;;;;13.50;5.55;;;14.40;99.90;;;;;;4971225;28;20061;-72
2023/06/10 03:28:41;;;;;;;11.90;5.20;;;14.40;99.90;;;;;;4938149;28;211859;-73
2023/06/10 03:31:07;;;;;;;14.10;5.57;;;14.40;99.90;;;;;;5016098;28;20050;-74
2023/06/10 03:33:34;;;;;;;13.38;5.45;;;14.40;99.90;;;;;;4960677;28;211384;-73
2023/06/10 03:36:00;;;;;;;14.27;5.50;;;14.30;99.90;;;;;;5013065;28;20061;-73
2023/06/10 03:38:26;;;;;;;14.25;5.85;;;14.30;99.90;;;;;;4939260;28;207865;-75
2023/06/10 03:40:52;;;;;;;16.38;5.18;;;14.30;99.90;;;;;;4995708;28;20061;-73
2023/06/10 03:43:18;;;;;;;13.80;5.50;;;14.30;99.90;;;;;;4937134;28;212677;-73
2023/06/10 03:45:45;;;;;;;15.48;5.65;;;14.30;99.90;;;;;;4978936;28;20050;-73
2023/06/10 03:48:11;;;;;;;14.23;5.60;;;14.30;99.90;;;;;;4949704;28;223862;-73
2023/06/10 03:50:37;;;;;;;16.50;5.90;;;14.40;99.90;;;;;;5032829;28;20053;-73
2023/06/10 03:53:03;;;;;;;14.48;5.32;;;14.40;99.90;;;;;;5004982;28;20495;-72
2023/06/10 03:55:31;;;;;;;13.20;5.32;;;14.40;99.90;;;;;;4917505;28;206467;-73
2023/06/10 03:57:57;;;;;;;13.23;5.60;;;14.40;99.90;;;;;;4987020;28;20142;-74
2023/06/10 04:00:24;;;;;;;15.40;5.72;;;14.40;99.90;;;;;;4968935;28;210916;-74
2023/06/10 04:02:51;;;;;;;12.65;5.70;;;14.50;99.90;;;;;;4988159;28;20038;-75
2023/06/10 04:05:22;;;;;;;13.65;5.32;;;14.50;99.90;;;;;;4982193;28;206558;-74
2023/06/10 04:07:48;;;;;;;15.10;5.55;;;14.50;99.90;;;;;;5005106;28;20050;-75
2023/06/10 04:10:15;;;;;;;17.42;6.13;;;14.60;99.90;;;;;;4968341;28;210414;-73
2023/06/10 04:12:42;;;;;;;14.00;5.40;;;14.60;99.90;;;;;;4984197;28;20039;-72
2023/06/10 04:15:08;;;;;;;18.35;6.10;;;14.60;99.90;;;;;;4945211;28;209258;-72
2023/06/10 04:17:35;;;;;;;15.63;5.80;;;14.70;99.90;;;;;;4987989;28;20038;-73
2023/06/10 04:20:02;;;;;;;13.90;5.38;;;14.70;99.90;;;;;;4941498;28;208707;-75
2023/06/10 04:22:28;;;;;;;15.20;5.78;;;14.70;99.90;;;;;;4982416;28;20269;-74
2023/06/10 04:24:55;;;;;;;13.85;5.70;;;14.70;99.90;;;;;;4953940;28;212794;-75
2023/06/10 04:27:21;;;;;;;12.48;5.13;;;14.70;99.90;;;;;;4986325;28;20050;-74
2023/06/10 04:29:47;;;;;;;12.82;5.40;;;14.80;99.90;;;;;;4978654;28;206734;-76
2023/06/10 04:32:13;;;;;;;16.10;5.72;;;14.80;99.90;;;;;;4971420;28;20427;-73
2023/06/10 04:34:40;;;;;;;15.75;6.25;;;14.80;99.90;;;;;;4945848;28;147466;-73
2023/06/10 04:37:06;;;;;;;17.48;5.85;;;14.90;99.90;;;;;;5001231;28;20046;-74
2023/06/10 04:39:33;;;;;;;14.73;5.78;;;14.90;99.90;;;;;;4949616;28;208139;-72
2023/06/10 04:42:00;;;;;;;14.88;6.03;;;14.90;99.90;;;;;;4991626;28;20050;-74
2023/06/10 04:44:26;;;;;;;14.50;5.95;;;15.00;99.90;;;;;;4951371;28;213366;-73
2023/06/10 04:46:52;;;;;;;18.55;6.10;;;15.10;99.90;;;;;;5008039;28;20419;-74
2023/06/10 04:49:18;;;;;;;13.55;5.57;;;15.10;99.90;;;;;;4963559;28;211164;-73
2023/06/10 04:51:45;;;;;;;19.23;6.32;;;15.10;99.90;;;;;;5004207;28;20050;-73
2023/06/10 04:54:11;;;;;;;14.00;5.97;;;15.20;99.90;;;;;;4936113;28;206816;-73
2023/06/10 04:56:37;;;;;;;14.55;5.97;;;15.20;99.90;;;;;;5010715;28;20041;-72
2023/06/10 04:59:03;;;;;;;14.30;6.07;;;15.20;99.90;;;;;;4953883;28;236468;-71
2023/06/10 05:01:29;;;;;;;18.48;6.20;;;15.20;99.90;;;;;;5006844;28;21649;-72
2023/06/10 05:03:55;;;;;;;14.48;6.38;;;15.20;99.90;;;;;;4955512;28;209091;-73
2023/06/10 05:06:21;;;;;;;13.00;6.03;;;15.30;99.90;;;;;;4980874;28;20087;-73
2023/06/10 05:08:47;;;;;;;15.70;6.43;;;15.30;99.90;;;;;;4938786;28;214678;-73
2023/06/10 05:11:13;;;;;;;16.13;5.72;;;15.40;99.90;;;;;;5007171;28;20057;-73
2023/06/10 05:13:41;;;;;;;18.98;6.13;;;15.50;99.90;;;;;;4934907;28;208369;-73
2023/06/10 05:16:07;;;;;;;13.00;5.63;;;15.50;99.90;;;;;;5010012;28;20069;-74
2023/06/10 05:18:33;;;;;;;15.55;6.07;;;15.50;99.90;;;;;;4954497;28;211905;-73
2023/06/10 05:20:59;;;;;;;14.65;5.75;;;15.70;99.90;;;;;;5008364;28;20054;-73
2023/06/10 05:23:25;;;;;;;13.35;5.68;;;15.80;99.90;;;;;;4949613;28;208637;-72
2023/06/10 05:25:51;;;;;;;16.58;5.90;;;15.80;99.90;;;;;;5005580;28;20488;-73
2023/06/10 05:28:18;;;;;;;15.35;6.18;;;15.80;99.90;;;;;;4927954;28;211767;-71
2023/06/10 05:30:44;;;;;;;14.35;6.13;;;15.90;99.90;;;;;;5021284;28;20070;-72
2023/06/10 05:33:10;;;;;;;14.13;5.90;;;16.00;99.90;;;;;;4968259;28;209114;-72
2023/06/10 05:35:36;;;;;;;16.58;5.80;;;16.10;99.90;;;;;;5011008;28;20046;-72
2023/06/10 05:38:02;;;;;;;16.95;6.28;;;16.10;99.90;;;;;;5022355;28;20050;-72
2023/06/10 05:40:29;;;;;;;12.82;5.45;;;16.30;99.90;;;;;;4936377;28;211218;-72
2023/06/10 05:42:55;;;;;;;16.27;5.40;;;16.40;99.90;;;;;;5015687;28;20057;-72
2023/06/10 05:45:21;;;;;;;16.55;5.97;;;16.50;99.90;;;;;;4952569;28;208138;-74
2023/06/10 05:47:47;;;;;;;13.45;5.32;;;16.70;99.90;;;;;;4996647;28;20054;-72
2023/06/10 05:50:13;;;;;;;15.52;5.38;;;16.90;99.90;;;;;;4998102;28;208360;-72
2023/06/10 05:52:42;;;;;;;15.18;5.60;;;17.10;99.90;;;;;;5019504;28;20065;-72
2023/06/10 05:55:09;;;;;;;14.48;5.60;;;17.50;99.90;;;;;;4954859;28;217357;-72
2023/06/10 05:57:35;;;;;;;17.58;5.47;;;17.70;99.90;;;;;;5001961;28;20050;-71
2023/06/10 06:00:01;;;;;;;14.15;5.72;;;17.90;99.90;;;;;;4953857;28;194112;-72
2023/06/10 06:02:27;;;;;;;14.30;5.78;;;18.10;99.90;;;;;;5009678;28;20050;-72
2023/06/10 06:04:53;;;;;;;12.52;5.07;;;18.30;99.90;;;;;;4973335;28;212594;-71
2023/06/10 06:07:20;;;;;;;15.07;5.40;;;18.50;99.90;;;;;;4994849;28;20427;-72
2023/06/10 06:09:47;;;;;;;13.23;5.47;;;18.80;99.90;;;;;;4980085;28;213283;-71
2023/06/10 06:12:13;;;;;;;16.70;5.80;;;18.90;99.90;;;;;;5010989;28;20055;-70
2023/06/10 06:14:42;;;;;;;15.80;5.43;;;19.10;99.90;;;;;;4976356;28;213719;-72
2023/06/10 06:17:08;;;;;;;15.63;5.20;;;19.10;99.90;;;;;;5017498;28;20064;-72
2023/06/10 06:19:34;;;;;;;13.23;4.60;;;19.30;99.90;;;;;;4968273;28;208131;-71
2023/06/10 06:22:00;;;;;;;12.88;5.18;;;19.50;99.90;;;;;;5012129;28;20056;-71
2023/06/10 06:24:26;;;;;;;12.35;4.93;;;19.70;99.90;;;;;;4963794;28;213025;-72
2023/06/10 06:26:52;;;;;;;12.00;4.60;;;20.00;99.90;;;;;;5016311;28;20066;-71
2023/06/10 06:29:19;;;;;;;14.23;4.70;;;20.10;99.90;;;;;;4975442;28;208162;-72
2023/06/10 06:31:45;;;;;;;12.65;4.82;;;20.40;99.90;;;;;;5005458;28;20058;-71
2023/06/10 06:34:11;;;;;;;14.32;4.60;;;20.60;99.90;;;;;;4964771;28;216570;-72
2023/06/10 06:36:37;;;;;;;11.55;4.80;;;20.80;99.90;;;;;;4998950;28;20049;-71
2023/06/10 06:39:03;;;;;;;14.23;4.97;;;20.80;99.90;;;;;;4968732;28;213126;-71
2023/06/10 06:41:29;;;;;;;12.65;4.82;;;20.70;99.90;;;;;;5016075;28;20061;-71
2023/06/10 06:43:55;;;;;;;13.60;4.97;;;20.80;99.90;;;;;;4985439;28;206513;-71
2023/06/10 06:46:22;;;;;;;14.25;4.90;;;20.90;99.90;;;;;;5002070;28;20050;-71
2023/06/10 06:48:48;;;;;;;13.40;4.78;;;21.10;99.90;;;;;;4945440;28;209816;-71
2023/06/10 06:51:14;;;;;;;12.93;4.60;;;21.20;99.90;;;;;;5011482;28;20046;-71
2023/06/10 06:53:44;;;;;;;11.38;5.07;;;21.30;99.90;;;;;;4942305;28;208740;-71
2023/06/10 06:56:13;;;;;;;12.60;5.38;;;21.30;99.80;;;;;;5031588;28;20523;-71
2023/06/10 06:58:39;;;;;;;13.63;5.15;;;21.50;99.80;;;;;;4969171;28;211362;-71
2023/06/10 07:01:05;;;;;;;13.25;4.90;;;21.50;99.50;;;;;;5033357;28;20046;-71
2023/06/10 07:03:31;;;;;;;13.13;5.20;;;21.70;99.90;;;;;;4962523;28;208025;-70
2023/06/10 07:05:58;;;;;;;14.23;5.07;;;21.90;99.60;;;;;;5016666;28;20058;-72
2023/06/10 07:08:24;;;;;;;16.45;5.15;;;22.00;99.50;;;;;;4956566;28;208685;-72
2023/06/10 07:10:50;;;;;;;15.00;5.28;;;22.30;98.90;;;;;;5004513;28;20057;-71
2023/06/10 07:13:16;;;;;;;13.23;4.82;;;22.60;98.90;;;;;;4965031;28;215013;-71
2023/06/10 07:15:42;;;;;;;13.15;4.80;;;23.00;98.70;;;;;;5019170;28;20053;-71
2023/06/10 07:18:08;;;;;;;12.50;4.85;;;23.50;98.40;;;;;;4994389;28;207427;-69
2023/06/10 07:20:34;;;;;;;11.40;4.93;;;23.40;97.70;;;;;;4987602;28;163282;-71
2023/06/10 07:23:01;;;;;;;14.40;4.47;;;23.60;97.70;;;;;;4992535;28;20061;-71
2023/06/10 07:25:27;;;;;;;11.30;4.30;;;23.70;97.40;;;;;;4973375;28;208409;-71
2023/06/10 07:27:53;;;;;;;11.55;4.78;;;24.00;96.90;;;;;;4995228;28;20511;-71
2023/06/10 07:30:19;;;;;;;12.00;4.20;;;24.30;96.20;;;;;;4970778;28;228021;-71
2023/06/10 07:32:45;;;;;;;10.68;4.00;;;24.30;95.70;;;;;;5007277;28;20057;-71
2023/06/10 07:35:13;;;;;;;11.20;4.25;;;24.50;95.70;;;;;;4978920;28;117754;-71
2023/06/10 07:37:39;;;;;;;13.13;3.92;;;24.50;95.40;;;;;;5042349;28;20046;-72
2023/06/10 07:40:06;;;;;;;10.75;3.78;;;24.80;95.50;;;;;;4976973;28;163420;-72
2023/06/10 07:42:35;;;;;;;13.15;4.20;;;25.10;94.60;;;;;;5007996;28;20048;-71
2023/06/10 07:45:01;;;;;;;11.85;4.00;;;25.10;94.30;;;;;;4957038;28;215864;-71
2023/06/10 07:47:27;;;;;;;10.15;4.00;;;25.20;94.10;;;;;;4975313;28;20046;-71
2023/06/10 07:49:53;;;;;;;12.43;4.15;;;25.10;93.80;;;;;;4961594;28;206873;-72
2023/06/10 07:52:19;;;;;;;12.52;4.10;;;25.40;93.80;;;;;;4998577;28;20062;-71
2023/06/10 07:54:45;;;;;;;12.38;4.05;;;25.70;93.60;;;;;;4961875;28;206794;-71
2023/06/10 07:57:12;;;;;;;11.30;3.80;;;26.00;93.20;;;;;;4998594;28;20053;-71
2023/06/10 07:59:38;;;;;;;12.38;3.97;;;26.40;93.40;;;;;;4975541;28;211376;-71
2023/06/10 08:02:05;;;;;;;11.65;3.78;;;26.80;93.10;;;;;;5014821;28;20484;-72
2023/06/10 08:04:32;;;;;;;13.65;4.25;;;27.10;92.30;;;;;;4970303;28;228533;-71
2023/06/10 08:06:58;;;;;;;12.25;3.97;;;27.00;91.90;;;;;;4994025;28;20053;-71
2023/06/10 08:09:24;;;;;;;11.32;3.70;;;26.90;91.40;;;;;;4978440;28;206884;-71
2023/06/10 08:11:50;;;;;;;10.45;3.83;;;27.10;91.70;;;;;;4997380;28;20047;-71
2023/06/10 08:14:16;;;;;;;12.75;4.05;;;27.30;91.60;;;;;;4947632;28;205973;-71
2023/06/10 08:16:43;;;;;;;10.05;4.03;;;27.20;91.50;;;;;;4984460;28;20482;-72
2023/06/10 08:19:10;;;;;;;11.10;3.75;;;27.30;91.30;;;;;;4969521;28;208013;-71
2023/06/10 08:21:37;;;;;;;9.90;3.70;;;27.60;90.70;;;;;;5007119;28;20053;-72
2023/06/10 08:24:03;;;;;;;10.55;4.30;;;27.40;90.40;;;;;;4977190;28;212069;-71
2023/06/10 08:26:29;;;;;;;10.10;3.90;;;27.60;90.60;;;;;;5004939;28;20050;-72
2023/06/10 08:28:55;;;;;;;10.20;3.90;;;27.80;90.10;;;;;;4951753;28;209727;-71
2023/06/10 08:31:21;;;;;;;10.35;3.63;;;27.90;90.30;;;;;;5008349;28;20061;-72
2023/06/10 08:33:47;;;;;;;11.48;3.80;;;28.30;90.10;;;;;;4991844;28;211439;-71
2023/06/10 08:36:14;;;;;;;11.98;4.00;;;28.40;89.80;;;;;;5003823;28;20068;-71
2023/06/10 08:38:40;;;;;;;10.88;3.80;;;28.20;88.40;;;;;;4971528;28;214404;-70
2023/06/10 08:41:09;;;;;;;12.65;3.85;;;28.30;87.60;;;;;;5034596;28;20480;-71
2023/06/10 08:43:45;;;;;;;12.93;3.88;;;28.70;87.50;;;;;;4955343;28;227374;-72
2023/06/10 08:46:13;;;;;;;10.55;3.80;;;28.90;85.80;;;;;;4992832;28;20471;-74
2023/06/10 08:48:43;;;;;;;10.88;3.80;;;29.40;86.80;;;;;;4921892;28;212643;-72
2023/06/10 08:51:11;;;;;;;157.00;13.18;;;29.40;85.90;;;;;;4993410;28;20119;-72
2023/06/10 08:53:41;;;;;;;15.32;3.92;;;29.60;85.30;;;;;;4929007;28;209747;-72
2023/06/10 08:56:09;;;;;;;9.98;3.72;;;29.30;83.80;;;;;;5035669;28;20122;-71
2023/06/10 08:58:41;;;;;;;11.70;3.67;;;29.60;84.10;;;;;;4954913;28;209094;-72
2023/06/10 09:01:11;;;;;;;10.82;4.20;;;29.90;84.60;;;;;;5011115;28;20186;-71
2023/06/10 09:03:38;;;;;;;8.85;3.70;;;29.90;83.20;;;;;;4942797;28;231971;-71
2023/06/10 09:06:07;;;;;;;10.13;3.67;;;29.80;83.30;;;;;;5019235;28;20099;-74
2023/06/10 09:08:35;;;;;;;10.82;3.40;;;30.20;80.60;;;;;;4957289;28;211724;-71
2023/06/10 09:11:01;;;;;;;11.07;3.72;;;29.80;81.30;;;;;;5001482;28;20062;-72
2023/06/10 09:13:27;;;;;;;12.43;3.80;;;30.00;81.50;;;;;;4968892;28;212705;-72
2023/06/10 09:15:56;;;;;;;12.20;3.53;;;30.40;81.40;;;;;;5004793;28;20060;-72
2023/06/10 09:18:23;;;;;;;418.90;29.90;;;30.80;80.30;;;;;;4957527;28;208933;-71
2023/06/10 09:20:49;;;;;;;12.60;3.60;;;31.20;79.90;;;;;;5009006;28;20047;-71
2023/06/10 09:23:16;;;;;;;9.85;3.40;;;31.20;79.70;;;;;;4947004;28;212896;-70
2023/06/10 09:25:42;;;;;;;11.73;3.72;;;31.50;78.30;;;;;;5010325;28;20061;-71
2023/06/10 09:28:15;;;;;;;10.00;3.72;;;31.70;78.90;;;;;;4968959;28;214830;-71
2023/06/10 09:30:41;;;;;;;10.98;3.50;;;31.60;78.30;;;;;;4976861;28;20049;-71
2023/06/10 09:33:13;;;;;;;9.02;3.33;;;31.60;77.90;;;;;;4989174;28;208178;-70
2023/06/10 09:35:46;;;;;;;10.85;3.17;;;31.20;75.70;;;;;;4959060;28;20527;-71
2023/06/10 09:38:15;;;;;;;11.13;3.47;;;31.40;75.40;;;;;;4975193;28;209690;-71
2023/06/10 09:40:54;;;;;;;10.50;3.10;;;31.70;75.50;;;;;;5015608;28;20043;-71
2023/06/10 09:43:21;;;;;;;9.15;3.10;;;31.70;75.20;;;;;;4932560;28;220456;-72
2023/06/10 09:45:54;;;;;;;9.90;3.20;;;31.90;75.00;;;;;;4987815;28;20408;-71
2023/06/10 09:48:20;;;;;;;9.20;3.33;;;32.10;73.70;;;;;;4933613;28;209103;-71
2023/06/10 09:50:46;;;;;;;9.40;3.10;;;32.20;73.20;;;;;;5015644;28;20058;-71
2023/06/10 09:53:12;;;;;;;10.07;2.95;;;32.60;73.70;;;;;;4959869;28;212217;-72
2023/06/10 09:55:40;;;;;;;8.90;3.00;;;32.60;74.00;;;;;;4982645;28;119432;-72
2023/06/10 09:58:07;;;;;;;10.43;3.00;;;32.80;71.90;;;;;;4973260;28;215092;-71
2023/06/10 10:00:34;;;;;;;28.50;4.10;;;32.90;71.30;;;;;;4977693;28;20038;-74
2023/06/10 10:03:01;;;;;;;9.85;3.13;;;32.40;71.80;;;;;;5010298;28;20048;-71
2023/06/10 10:05:28;;;;;;;13.05;2.90;;;32.90;70.30;;;;;;4964604;28;207563;-71
2023/06/10 10:07:56;;;;;;;7.72;2.72;;;32.90;68.70;;;;;;4983146;28;20038;-71
2023/06/10 10:10:22;;;;;;;9.93;3.00;;;33.00;68.80;;;;;;4967770;28;206910;-71
2023/06/10 10:12:53;;;;;;;9.48;2.78;;;33.40;68.20;;;;;;4985329;28;20529;-73
2023/06/10 10:15:21;;;;;;;8.77;2.83;;;33.60;67.70;;;;;;4966228;28;207143;-72
2023/06/10 10:18:00;;;;;;;9.80;3.05;;;33.30;67.10;;;;;;4978016;28;20500;-72
2023/06/10 10:20:31;;;;;;;9.30;2.80;;;33.30;66.90;;;;;;4955730;28;210057;-72
2023/06/10 10:22:58;;;;;;;9.80;2.85;;;33.40;66.60;;;;;;4988775;28;20706;-72
2023/06/10 10:25:28;;;;;;;8.40;2.80;;;33.20;66.30;;;;;;4970663;28;218202;-74
2023/06/10 10:28:05;;;;;;;9.27;2.92;;;33.40;66.50;;;;;;4987751;28;20050;-72
2023/06/10 10:30:41;;;;;;;9.80;2.67;;;33.40;65.10;;;;;;4961500;28;131013;-73
2023/06/10 10:33:19;;;;;;;10.27;2.50;;;33.40;67.10;;;;;;4994438;28;212513;-73
2023/06/10 10:35:46;;;;;;;10.65;2.78;;;33.90;66.30;;;;;;4966347;28;20090;-71
2023/06/10 10:38:12;;;;;;;11.40;2.88;;;33.70;65.70;;;;;;4943150;28;208567;-72
2023/06/10 10:40:39;;;;;;;9.98;2.90;;;33.80;66.10;;;;;;5019751;28;20042;-71
2023/06/10 10:43:06;;;;;;;9.75;2.80;;;34.10;65.70;;;;;;4981942;28;211480;-72
2023/06/10 10:45:34;;;;;;;8.95;2.65;;;34.30;63.10;;;;;;4976183;28;216392;-72
2023/06/10 10:48:06;;;;;;;8.43;3.08;;;34.50;61.50;;;;;;5016112;28;20060;-72
2023/06/10 10:50:32;;;;;;;9.68;2.95;;;34.70;63.00;;;;;;4934633;28;211569;-73
2023/06/10 10:53:03;;;;;;;9.90;2.80;;;34.30;62.70;;;;;;4987560;28;20055;-71
2023/06/10 10:55:29;;;;;;;8.63;2.80;;;34.20;61.40;;;;;;4957496;28;209682;-72
2023/06/10 10:58:03;;;;;;;8.52;2.78;;;33.50;63.40;;;;;;5010646;28;20042;-72
2023/06/10 11:00:35;;;;;;;8.07;2.83;;;34.20;63.50;;;;;;4968075;28;207900;-71
2023/06/10 11:03:04;;;;;;;8.75;2.97;;;34.30;61.50;;;;;;4975430;28;20052;-72
2023/06/10 11:05:44;;;;;;;8.73;2.67;;;34.40;61.00;;;;;;4964933;28;390730;-72
2023/06/10 11:08:11;;;;;;;9.75;2.47;;;34.40;62.00;;;;;;4972513;28;209476;-72
2023/06/10 11:10:39;;;;;;;9.98;2.92;;;34.20;62.00;;;;;;4983906;28;20050;-72
2023/06/10 11:13:09;;;;;;;7.88;2.60;;;34.40;60.90;;;;;;4975434;28;210005;-72
2023/06/10 11:15:57;;;;;;;8.32;2.60;;;34.20;60.30;;;;;;4931017;28;259621;-73
2023/06/10 11:18:28;;;;;;;8.80;2.80;;;34.30;59.50;;;;;;4945301;28;210563;-71
2023/06/10 11:21:02;;;;;;;7.95;2.55;;;34.00;59.20;;;;;;5001072;28;20059;-72
2023/06/10 11:23:28;;;;;;;9.43;2.70;;;33.80;58.80;;;;;;4973507;28;209820;-73
2023/06/10 11:26:17;;;;;;;8.75;2.50;;;33.60;60.60;;;;;;5010841;28;20046;-71
2023/06/10 11:28:46;;;;;;;9.32;2.88;;;34.40;61.40;;;;;;4941502;28;207712;-73
2023/06/10 11:31:24;;;;;;;8.97;2.90;;;34.50;60.70;;;;;;5013613;28;20053;-72
2023/06/10 11:34:09;;;;;;;8.80;3.00;;;34.60;60.80;;;;;;4967262;28;211416;-73
2023/06/10 11:36:42;;;;;;;10.25;2.78;;;34.20;61.00;;;;;;5030503;28;20370;-73
2023/06/10 11:39:08;;;;;;;9.10;2.85;;;33.80;60.90;;;;;;4972346;28;208507;-73
2023/06/10 11:41:37;;;;;;;7.80;2.35;;;34.00;60.70;;;;;;4980967;28;20504;-71
2023/06/10 11:44:13;;;;;;;10.05;4.97;;;34.00;59.10;;;;;;4940344;28;206755;-72
2023/06/10 11:46:42;;;;;;;8.40;3.67;;;33.70;59.80;;;;;;4999256;28;20058;-71
2023/06/10 11:49:08;;;;;;;8.07;2.50;;;34.20;60.20;;;;;;4960863;28;224123;-72
2023/06/10 11:51:37;;;;;;;9.20;2.60;;;34.50;57.80;;;;;;5000449;28;20069;-73
2023/06/10 11:54:04;;;;;;;7.97;2.80;;;34.30;57.00;;;;;;4944919;28;207884;-71
2023/06/10 11:56:31;;;;;;;8.70;2.45;;;34.70;59.40;;;;;;5006493;28;20058;-71
2023/06/10 11:59:09;;;;;;;8.00;2.22;;;35.30;59.00;;;;;;4968457;28;211643;-71
2023/06/10 12:01:37;;;;;;;8.77;2.50;;;34.90;57.90;;;;;;4975460;28;20058;-71
2023/06/10 12:04:06;;;;;;;7.88;2.70;;;35.20;57.10;;;;;;4947568;28;209090;-72
2023/06/10 12:07:01;;;;;;;9.95;2.78;;;35.20;58.80;;;;;;4989814;28;20054;-71
2023/06/10 12:09:29;;;;;;;9.07;2.67;;;34.90;59.50;;;;;;4911346;28;206348;-72
2023/06/10 12:12:04;;;;;;;11.43;2.70;;;34.60;60.40;;;;;;4989602;28;20436;-71
2023/06/10 12:14:56;;;;;;;8.90;2.30;;;34.90;59.70;;;;;;4953204;28;208919;-71
2023/06/10 12:17:32;;;;;;;9.80;2.63;;;34.80;57.20;;;;;;5008320;28;20060;-72
2023/06/10 12:19:59;;;;;;;8.05;2.55;;;34.90;58.10;;;;;;4969607;28;210547;-72
2023/06/10 12:22:26;;;;;;;10.15;2.47;;;34.30;59.50;;;;;;5010850;28;20526;-71
2023/06/10 12:25:00;;;;;;;8.30;2.42;;;34.40;59.10;;;;;;4957116;28;206978;-73
2023/06/10 12:27:28;;;;;;;8.40;2.45;;;34.90;59.30;;;;;;4989195;28;20050;-72
2023/06/10 12:29:55;;;;;;;8.15;2.55;;;35.10;59.00;;;;;;4959516;28;189653;-71
2023/06/10 12:32:26;;;;;;;10.18;2.88;;;35.00;59.90;;;;;;4993944;28;20431;-72
2023/06/10 12:35:04;;;;;;;9.02;2.60;;;34.40;59.10;;;;;;4960688;28;209388;-71
2023/06/10 12:37:33;;;;;;;8.82;2.35;;;34.30;60.00;;;;;;5003917;28;20423;-71